createdAt,value
2022-12-13T00:03:54.670Z,34.58
2022-12-13T00:09:18.057Z,34.40
2022-12-13T00:14:39.781Z,34.24
2022-12-13T00:20:01.522Z,34.55
2022-12-13T00:25:23.259Z,34.21
2022-12-13T00:30:44.988Z,34.29
2022-12-13T00:36:07.930Z,33.95
2022-12-13T00:41:32.686Z,34.42
2022-12-13T00:46:54.791Z,34.33
2022-12-13T00:52:16.516Z,34.37
2022-12-13T00:57:38.218Z,34.08
2022-12-13T01:03:00.026Z,34.44
2022-12-13T01:08:21.849Z,34.11
2022-12-13T01:13:44.003Z,33.88
2022-12-13T01:19:05.697Z,34.12
2022-12-13T01:24:28.570Z,34.40
2022-12-13T01:29:50.303Z,34.00
2022-12-13T01:35:14.344Z,34.25
2022-12-13T01:40:44.107Z,33.99
2022-12-13T01:46:06.632Z,33.91
2022-12-13T01:51:42.156Z,33.92
2022-12-13T01:57:09.067Z,33.79
2022-12-13T02:02:31.117Z,34.17
2022-12-13T02:07:53.716Z,33.94
2022-12-13T02:13:15.825Z,34.05
2022-12-13T02:19:05.306Z,33.84
2022-12-13T02:24:29.794Z,34.24
2022-12-13T02:30:19.779Z,33.98
2022-12-13T02:35:55.375Z,34.09
2022-12-13T02:41:38.325Z,34.13
2022-12-13T02:47:12.541Z,33.82
2022-12-13T02:52:35.936Z,33.98
2022-12-13T02:57:57.599Z,33.74
2022-12-13T03:03:24.366Z,33.68
2022-12-13T03:08:49.110Z,33.70
2022-12-13T03:14:12.934Z,33.58
2022-12-13T03:19:35.012Z,33.88
2022-12-13T03:24:56.846Z,33.74
2022-12-13T03:30:18.628Z,33.67
2022-12-13T03:35:44.855Z,34.02
2022-12-13T03:41:14.028Z,33.63
2022-12-13T03:46:35.852Z,34.05
2022-12-13T03:51:57.607Z,33.57
2022-12-13T03:57:19.373Z,33.61
2022-12-13T04:02:41.105Z,33.94
2022-12-13T04:08:03.085Z,33.79
2022-12-13T04:13:34.046Z,33.44
2022-12-13T04:18:55.850Z,33.38
2022-12-13T04:24:17.594Z,33.65
2022-12-13T04:29:39.315Z,33.71
2022-12-13T04:35:12.721Z,33.70
2022-12-13T04:40:35.289Z,33.35
2022-12-13T04:45:57.037Z,33.49
2022-12-13T04:51:18.782Z,33.41
2022-12-13T04:56:40.488Z,33.46
2022-12-13T05:02:02.299Z,33.25
2022-12-13T05:07:24.116Z,33.38
2022-12-13T05:12:45.869Z,33.18
2022-12-13T05:18:09.880Z,33.44
2022-12-13T05:23:33.301Z,33.31
2022-12-13T05:28:58.344Z,33.19
2022-12-13T05:34:20.045Z,33.05
2022-12-13T05:39:41.765Z,33.17
2022-12-13T05:45:03.714Z,33.13
2022-12-13T05:50:25.910Z,32.99
2022-12-13T05:55:47.648Z,33.29
2022-12-13T06:01:14.298Z,33.02
2022-12-13T06:06:35.981Z,33.22
2022-12-13T06:12:01.063Z,33.08
2022-12-13T06:17:24.868Z,33.38
2022-12-13T06:22:46.601Z,33.10
2022-12-13T06:28:08.354Z,32.43
2022-12-13T06:33:30.174Z,31.84
2022-12-13T06:38:52.014Z,31.38
2022-12-13T06:44:13.751Z,30.94
2022-12-13T06:49:35.504Z,30.25
2022-12-13T06:54:59.952Z,29.92
2022-12-13T07:00:22.785Z,30.25
2022-12-13T07:05:45.358Z,30.38
2022-12-13T07:11:07.170Z,30.40
2022-12-13T07:16:29.135Z,30.26
2022-12-13T07:21:50.967Z,30.24
2022-12-13T07:27:12.699Z,30.44
2022-12-13T07:32:34.467Z,30.99
2022-12-13T07:37:56.204Z,30.92
2022-12-13T07:43:18.280Z,30.89
2022-12-13T07:48:40.377Z,30.69
2022-12-13T07:54:06.313Z,31.14
2022-12-13T07:59:29.175Z,31.04
2022-12-13T08:04:55.018Z,31.01
2022-12-13T08:10:17.034Z,30.77
2022-12-13T08:15:38.732Z,30.70
2022-12-13T08:21:02.108Z,30.55
2022-12-13T08:26:24.091Z,30.26
2022-12-13T08:31:46.224Z,30.20
2022-12-13T08:37:08.049Z,29.84
2022-12-13T08:42:29.788Z,29.53
2022-12-13T08:47:51.462Z,29.08
2022-12-13T08:53:28.858Z,29.31
2022-12-13T08:58:52.196Z,29.26
2022-12-13T09:04:13.863Z,29.55
2022-12-13T09:09:37.142Z,29.55
2022-12-13T09:15:00.924Z,29.50
2022-12-13T09:20:29.749Z,29.77
2022-12-13T09:26:05.199Z,29.67
2022-12-13T09:31:27.909Z,29.63
2022-12-13T09:36:49.620Z,29.77
2022-12-13T09:42:21.198Z,29.73
2022-12-13T09:47:46.998Z,29.87
2022-12-13T09:53:21.454Z,29.73
2022-12-13T09:58:56.908Z,29.83
2022-12-13T10:04:19.210Z,30.28
2022-12-13T10:09:40.925Z,30.20
2022-12-13T10:15:03.747Z,29.69
2022-12-13T10:20:29.132Z,29.76
2022-12-13T10:26:03.297Z,29.66
2022-12-13T10:31:26.236Z,29.57
2022-12-13T10:36:48.446Z,29.23
2022-12-13T10:42:22.887Z,29.48
2022-12-13T10:47:46.209Z,28.93
2022-12-13T10:53:19.792Z,28.72
2022-12-13T10:58:47.143Z,28.96
2022-12-13T11:04:33.283Z,28.79
2022-12-13T11:09:55.278Z,29.41
2022-12-13T11:15:23.452Z,28.94
2022-12-13T11:21:11.976Z,29.12
2022-12-13T11:26:38.012Z,29.34
2022-12-13T11:32:05.555Z,29.44
2022-12-13T11:37:48.496Z,28.88
2022-12-13T11:43:40.107Z,29.07
2022-12-13T11:49:10.690Z,28.79
2022-12-13T11:54:46.760Z,28.93
2022-12-13T12:00:34.435Z,29.11
2022-12-13T12:06:06.046Z,29.27
2022-12-13T12:11:35.998Z,29.47
2022-12-13T12:16:59.258Z,29.33
2022-12-13T12:22:46.524Z,29.89
2022-12-13T12:28:29.696Z,29.95
2022-12-13T12:34:28.564Z,29.90
2022-12-13T12:40:09.782Z,29.54
2022-12-13T12:46:03.544Z,28.72
2022-12-13T12:52:00.465Z,28.94
2022-12-13T12:58:08.359Z,28.32
2022-12-13T13:03:32.412Z,28.03
2022-12-13T13:08:59.350Z,27.98
2022-12-13T13:14:23.812Z,27.93
2022-12-13T13:19:47.927Z,28.01
2022-12-13T13:25:35.206Z,27.35
2022-12-13T13:31:09.355Z,27.92
2022-12-13T13:36:41.272Z,27.49
2022-12-13T13:42:14.753Z,27.75
2022-12-13T13:47:39.294Z,27.79
2022-12-13T13:53:21.231Z,28.35
2022-12-13T13:58:48.775Z,28.63
2022-12-13T14:04:48.713Z,28.07
2022-12-13T14:10:36.037Z,28.52
2022-12-13T14:16:37.200Z,28.35
2022-12-13T14:22:01.763Z,28.81
2022-12-13T14:27:45.638Z,28.47
2022-12-13T14:33:21.288Z,28.79
2022-12-13T14:38:43.193Z,29.10
2022-12-13T14:44:25.079Z,28.76
2022-12-13T14:49:51.351Z,28.98
2022-12-13T14:55:33.571Z,29.22
2022-12-13T15:00:58.278Z,28.94
2022-12-13T15:06:21.471Z,28.80
2022-12-13T15:11:44.873Z,28.39
2022-12-13T15:17:07.122Z,28.55
2022-12-13T15:22:30.103Z,28.22
2022-12-13T15:27:54.964Z,28.41
2022-12-13T15:33:19.098Z,28.33
2022-12-13T15:38:47.945Z,27.99
2022-12-13T15:44:20.932Z,27.86
2022-12-13T15:49:51.052Z,27.91
2022-12-13T15:55:12.659Z,28.47
2022-12-13T16:00:48.901Z,28.30
2022-12-13T16:06:18.231Z,28.39
2022-12-13T16:11:50.066Z,28.55
2022-12-13T16:17:29.596Z,29.07
2022-12-13T16:22:51.373Z,29.22
2022-12-13T16:28:17.824Z,28.95
2022-12-13T16:33:39.568Z,28.92
2022-12-13T16:39:01.303Z,29.26
2022-12-13T16:44:41.437Z,29.04
2022-12-13T16:50:10.002Z,29.23
2022-12-13T16:55:31.713Z,29.66
2022-12-13T17:00:58.227Z,29.33
2022-12-13T17:06:24.270Z,29.18
2022-12-13T17:11:46.163Z,29.10
2022-12-13T17:17:09.774Z,28.47
2022-12-13T17:22:35.219Z,28.43
2022-12-13T17:27:56.962Z,28.11
2022-12-13T17:33:18.667Z,27.75
2022-12-13T17:38:47.918Z,27.30
2022-12-13T17:44:10.996Z,27.40
2022-12-13T17:49:32.699Z,27.47
2022-12-13T17:54:54.432Z,27.63
2022-12-13T18:00:16.546Z,27.53
2022-12-13T18:05:38.218Z,27.55
2022-12-13T18:11:23.982Z,27.80
2022-12-13T18:16:41.648Z,27.57
2022-12-13T18:22:03.451Z,27.66
2022-12-13T18:27:25.302Z,27.58
2022-12-13T18:32:47.422Z,27.65
2022-12-13T18:38:09.549Z,27.67
2022-12-13T18:43:31.195Z,27.71
2022-12-13T18:48:52.888Z,28.07
2022-12-13T18:54:14.551Z,27.97
2022-12-13T18:59:36.218Z,28.12
2022-12-13T19:04:57.895Z,27.80
2022-12-13T19:10:19.643Z,27.87
2022-12-13T19:15:41.477Z,28.33
2022-12-13T19:21:07.594Z,28.31
2022-12-13T19:26:29.754Z,28.51
2022-12-13T19:31:51.572Z,28.65
2022-12-13T19:37:13.254Z,28.54
2022-12-13T19:42:34.978Z,28.40
2022-12-13T19:47:56.667Z,28.44
2022-12-13T19:53:18.353Z,28.18
2022-12-13T19:58:40.735Z,27.83
2022-12-13T20:04:02.448Z,27.69
2022-12-13T20:09:24.161Z,27.59
2022-12-13T20:14:46.149Z,27.81
2022-12-13T20:20:08.253Z,27.37
2022-12-13T20:25:30.038Z,27.79
2022-12-13T20:30:51.803Z,28.08
2022-12-13T20:36:27.217Z,28.24
2022-12-13T20:41:49.387Z,28.46
2022-12-13T20:47:11.233Z,28.08
2022-12-13T20:52:33.155Z,28.53
2022-12-13T20:57:55.062Z,28.48
2022-12-13T21:03:16.753Z,28.26
2022-12-13T21:09:00.184Z,28.13
2022-12-13T21:14:25.584Z,27.72
2022-12-13T21:19:48.940Z,28.14
2022-12-13T21:25:10.724Z,28.34
2022-12-13T21:30:32.465Z,28.59
2022-12-13T21:35:54.726Z,28.72
2022-12-13T21:41:16.607Z,28.73
2022-12-13T21:47:10.630Z,28.64
2022-12-13T21:52:20.056Z,28.59
2022-12-13T21:58:05.961Z,28.97
2022-12-13T22:03:29.619Z,28.71
2022-12-13T22:08:51.314Z,29.19
2022-12-13T22:14:13.318Z,29.14
2022-12-13T22:19:35.132Z,29.09
2022-12-13T22:24:56.844Z,29.28
2022-12-13T22:30:18.575Z,29.17
2022-12-13T22:35:40.327Z,29.09
2022-12-13T22:41:05.776Z,29.01
2022-12-13T22:46:27.925Z,29.16
2022-12-13T22:51:49.658Z,29.38
2022-12-13T22:57:11.413Z,29.22
2022-12-13T23:02:33.088Z,29.59
2022-12-13T23:07:54.888Z,29.34
2022-12-13T23:13:16.755Z,29.76
2022-12-13T23:18:38.566Z,29.46
2022-12-13T23:24:00.479Z,29.70
2022-12-13T23:29:22.188Z,29.76
2022-12-13T23:34:43.932Z,29.88
2022-12-13T23:40:06.187Z,29.84
2022-12-13T23:45:27.890Z,29.98
2022-12-13T23:50:49.680Z,29.72
2022-12-13T23:56:14.080Z,29.60
